sensor_id;sensor_type;location;lat;lon;timestamp;pressure;altitude;pressure_sealevel;temperature;humidity
62600;BME280;48671;48.922;2.346;2023-02-17T00:00:09;102366.69;;;13.22;68.50
62600;BME280;48671;48.922;2.346;2023-02-17T00:02:35;102371.91;;;13.22;68.57
62600;BME280;48671;48.922;2.346;2023-02-17T00:05:01;102376.28;;;13.22;69.49
62600;BME280;48671;48.922;2.346;2023-02-17T00:07:30;102375.38;;;13.23;68.99
62600;BME280;48671;48.922;2.346;2023-02-17T00:09:56;102367.50;;;13.26;69.07
62600;BME280;48671;48.922;2.346;2023-02-17T00:12:21;102360.63;;;13.20;69.38
62600;BME280;48671;48.922;2.346;2023-02-17T00:14:47;102361.38;;;13.27;68.84
62600;BME280;48671;48.922;2.346;2023-02-17T00:17:12;102352.75;;;13.22;69.38
62600;BME280;48671;48.922;2.346;2023-02-17T00:19:38;102367.44;;;13.27;69.27
62600;BME280;48671;48.922;2.346;2023-02-17T00:22:03;102358.75;;;13.27;69.64
62600;BME280;48671;48.922;2.346;2023-02-17T00:24:30;102358.72;;;13.28;69.03
62600;BME280;48671;48.922;2.346;2023-02-17T00:26:56;102342.25;;;13.25;68.74
62600;BME280;48671;48.922;2.346;2023-02-17T00:29:21;102351.81;;;13.26;69.20
62600;BME280;48671;48.922;2.346;2023-02-17T00:31:47;102358.66;;;13.31;69.32
62600;BME280;48671;48.922;2.346;2023-02-17T00:34:13;102356.13;;;13.28;69.62
62600;BME280;48671;48.922;2.346;2023-02-17T00:36:40;102352.66;;;13.26;69.32
62600;BME280;48671;48.922;2.346;2023-02-17T00:39:06;102355.19;;;13.31;69.33
62600;BME280;48671;48.922;2.346;2023-02-17T00:41:31;102340.56;;;13.21;69.79
62600;BME280;48671;48.922;2.346;2023-02-17T00:43:57;102349.19;;;13.26;70.17
62600;BME280;48671;48.922;2.346;2023-02-17T00:46:23;102349.16;;;13.27;69.94
62600;BME280;48671;48.922;2.346;2023-02-17T00:48:49;102346.69;;;13.21;69.58
62600;BME280;48671;48.922;2.346;2023-02-17T00:51:15;102351.00;;;13.22;70.05
62600;BME280;48671;48.922;2.346;2023-02-17T00:53:41;102357.81;;;13.29;69.73
62600;BME280;48671;48.922;2.346;2023-02-17T00:56:07;102356.06;;;13.30;69.48
62600;BME280;48671;48.922;2.346;2023-02-17T00:58:34;102348.28;;;13.28;69.28
62600;BME280;48671;48.922;2.346;2023-02-17T01:01:00;102353.50;;;13.28;69.47
62600;BME280;48671;48.922;2.346;2023-02-17T01:03:26;102350.88;;;13.28;70.65
62600;BME280;48671;48.922;2.346;2023-02-17T01:05:52;102355.25;;;13.28;70.33
62600;BME280;48671;48.922;2.346;2023-02-17T01:08:19;102354.47;;;13.24;69.91
62600;BME280;48671;48.922;2.346;2023-02-17T01:10:45;102356.03;;;13.31;70.18
62600;BME280;48671;48.922;2.346;2023-02-17T01:13:13;102348.28;;;13.27;70.06
62600;BME280;48671;48.922;2.346;2023-02-17T01:15:43;102356.06;;;13.30;70.66
62600;BME280;48671;48.922;2.346;2023-02-17T01:18:09;102344.00;;;13.23;70.24
62600;BME280;48671;48.922;2.346;2023-02-17T01:20:35;102338.78;;;13.23;70.14
62600;BME280;48671;48.922;2.346;2023-02-17T01:23:01;102346.63;;;13.23;70.24
62600;BME280;48671;48.922;2.346;2023-02-17T01:25:27;102336.25;;;13.20;70.21
62600;BME280;48671;48.922;2.346;2023-02-17T01:27:52;102349.97;;;13.29;71.58
62600;BME280;48671;48.922;2.346;2023-02-17T01:30:17;102330.19;;;13.18;71.01
62600;BME280;48671;48.922;2.346;2023-02-17T01:32:43;102324.88;;;13.21;70.71
62600;BME280;48671;48.922;2.346;2023-02-17T01:35:08;102337.03;;;13.23;70.63
62600;BME280;48671;48.922;2.346;2023-02-17T01:37:33;102339.69;;;13.22;71.13
62600;BME280;48671;48.922;2.346;2023-02-17T01:39:59;102338.78;;;13.24;70.75
62600;BME280;48671;48.922;2.346;2023-02-17T01:42:24;102322.38;;;13.16;71.72
62600;BME280;48671;48.922;2.346;2023-02-17T01:47:45;102346.59;;;13.26;70.87
62600;BME280;48671;48.922;2.346;2023-02-17T01:50:13;102340.63;;;13.19;72.31
62600;BME280;48671;48.922;2.346;2023-02-17T01:52:40;102335.47;;;13.16;71.38
62600;BME280;48671;48.922;2.346;2023-02-17T01:55:10;102345.78;;;13.21;71.48
62600;BME280;48671;48.922;2.346;2023-02-17T01:57:38;102342.31;;;13.20;71.25
62600;BME280;48671;48.922;2.346;2023-02-17T02:00:08;102332.78;;;13.18;71.73
62600;BME280;48671;48.922;2.346;2023-02-17T02:02:34;102337.94;;;13.21;71.83
62600;BME280;48671;48.922;2.346;2023-02-17T02:05:00;102327.69;;;13.13;72.60
62600;BME280;48671;48.922;2.346;2023-02-17T02:07:29;102343.19;;;13.21;72.29
62600;BME280;48671;48.922;2.346;2023-02-17T02:09:57;102334.41;;;13.23;72.07
62600;BME280;48671;48.922;2.346;2023-02-17T02:12:24;102344.88;;;13.23;71.70
62600;BME280;48671;48.922;2.346;2023-02-17T02:14:51;102332.78;;;13.19;71.87
62600;BME280;48671;48.922;2.346;2023-02-17T02:20:22;102344.06;;;13.21;71.94
62600;BME280;48671;48.922;2.346;2023-02-17T02:31:03;102335.50;;;13.15;72.11
62600;BME280;48671;48.922;2.346;2023-02-17T02:33:39;102338.13;;;13.15;72.47
62600;BME280;48671;48.922;2.346;2023-02-17T02:36:15;102326.84;;;13.11;72.59
62600;BME280;48671;48.922;2.346;2023-02-17T02:38:46;102333.75;;;13.13;72.28
62600;BME280;48671;48.922;2.346;2023-02-17T02:41:21;102323.38;;;13.12;72.32
62600;BME280;48671;48.922;2.346;2023-02-17T02:43:48;102318.22;;;13.09;72.52
62600;BME280;48671;48.922;2.346;2023-02-17T02:46:15;102326.97;;;13.06;73.20
62600;BME280;48671;48.922;2.346;2023-02-17T02:48:41;102317.50;;;13.02;72.92
62600;BME280;48671;48.922;2.346;2023-02-17T02:53:57;102316.78;;;12.96;73.42
62600;BME280;48671;48.922;2.346;2023-02-17T02:59:29;102326.31;;;12.98;73.81
62600;BME280;48671;48.922;2.346;2023-02-17T03:07:24;102309.09;;;12.88;75.13
62600;BME280;48671;48.922;2.346;2023-02-17T03:09:52;102322.09;;;12.91;74.05
62600;BME280;48671;48.922;2.346;2023-02-17T03:12:19;102322.97;;;12.92;74.59
62600;BME280;48671;48.922;2.346;2023-02-17T03:14:48;102316.88;;;12.91;73.76
62600;BME280;48671;48.922;2.346;2023-02-17T03:17:14;102317.75;;;12.92;74.20
62600;BME280;48671;48.922;2.346;2023-02-17T03:19:40;102321.22;;;12.92;74.15
62600;BME280;48671;48.922;2.346;2023-02-17T03:22:19;102308.19;;;12.91;74.33
62600;BME280;48671;48.922;2.346;2023-02-17T03:24:45;102310.00;;;12.87;73.81
62600;BME280;48671;48.922;2.346;2023-02-17T03:27:11;102317.78;;;12.90;73.91
62600;BME280;48671;48.922;2.346;2023-02-17T03:29:36;102303.09;;;12.84;73.94
62600;BME280;48671;48.922;2.346;2023-02-17T03:32:02;102314.31;;;12.88;74.53
62600;BME280;48671;48.922;2.346;2023-02-17T03:34:28;102313.41;;;12.91;74.04
62600;BME280;48671;48.922;2.346;2023-02-17T03:36:53;102305.69;;;12.84;74.49
62600;BME280;48671;48.922;2.346;2023-02-17T03:39:18;102312.53;;;12.90;74.30
62600;BME280;48671;48.922;2.346;2023-02-17T03:41:44;102314.25;;;12.91;74.22
62600;BME280;48671;48.922;2.346;2023-02-17T03:44:10;102313.47;;;12.87;73.99
62600;BME280;48671;48.922;2.346;2023-02-17T03:46:38;102316.00;;;12.92;74.03
62600;BME280;48671;48.922;2.346;2023-02-17T03:49:04;102315.28;;;12.85;75.76
62600;BME280;48671;48.922;2.346;2023-02-17T03:51:29;102317.97;;;12.82;76.41
62600;BME280;48671;48.922;2.346;2023-02-17T03:53:54;102312.00;;;12.76;74.96
62600;BME280;48671;48.922;2.346;2023-02-17T03:56:20;102321.56;;;12.77;75.69
62600;BME280;48671;48.922;2.346;2023-02-17T03:58:45;102328.41;;;12.81;75.28
62600;BME280;48671;48.922;2.346;2023-02-17T04:01:11;102320.69;;;12.76;75.19
62600;BME280;48671;48.922;2.346;2023-02-17T04:03:38;102332.78;;;12.82;75.37
62600;BME280;48671;48.922;2.346;2023-02-17T04:06:04;102336.19;;;12.85;75.22
62600;BME280;48671;48.922;2.346;2023-02-17T04:08:30;102329.22;;;12.84;75.15
62600;BME280;48671;48.922;2.346;2023-02-17T04:10:59;102341.25;;;12.92;75.43
62600;BME280;48671;48.922;2.346;2023-02-17T04:13:25;102337.81;;;12.89;75.95
62600;BME280;48671;48.922;2.346;2023-02-17T04:15:50;102349.13;;;12.90;75.34
62600;BME280;48671;48.922;2.346;2023-02-17T04:18:17;102336.13;;;12.87;75.55
62600;BME280;48671;48.922;2.346;2023-02-17T04:20:43;102343.00;;;12.91;75.81
62600;BME280;48671;48.922;2.346;2023-02-17T04:23:09;102346.56;;;12.87;75.89
62600;BME280;48671;48.922;2.346;2023-02-17T04:25:36;102349.22;;;12.85;75.89
62600;BME280;48671;48.922;2.346;2023-02-17T04:28:03;102341.47;;;12.82;77.30
62600;BME280;48671;48.922;2.346;2023-02-17T04:30:29;102352.75;;;12.83;76.80
62600;BME280;48671;48.922;2.346;2023-02-17T04:32:54;102350.97;;;12.85;77.09
62600;BME280;48671;48.922;2.346;2023-02-17T04:35:20;102355.41;;;12.81;76.74
62600;BME280;48671;48.922;2.346;2023-02-17T04:37:45;102345.84;;;12.80;76.77
62600;BME280;48671;48.922;2.346;2023-02-17T04:40:11;102335.53;;;12.74;77.49
62600;BME280;48671;48.922;2.346;2023-02-17T04:42:37;102359.69;;;12.84;77.13
62600;BME280;48671;48.922;2.346;2023-02-17T04:45:03;102347.66;;;12.77;77.17
62600;BME280;48671;48.922;2.346;2023-02-17T04:47:29;102354.47;;;12.84;76.96
62600;BME280;48671;48.922;2.346;2023-02-17T04:49:54;102349.38;;;12.78;76.33
62600;BME280;48671;48.922;2.346;2023-02-17T04:52:20;102350.03;;;12.87;76.63
62600;BME280;48671;48.922;2.346;2023-02-17T04:54:45;102347.59;;;12.80;77.71
62600;BME280;48671;48.922;2.346;2023-02-17T04:57:10;102337.28;;;12.75;78.87
62600;BME280;48671;48.922;2.346;2023-02-17T04:59:36;102339.06;;;12.72;78.05
62600;BME280;48671;48.922;2.346;2023-02-17T05:02:01;102364.06;;;12.83;77.83
62600;BME280;48671;48.922;2.346;2023-02-17T05:04:26;102356.19;;;12.85;77.49
62600;BME280;48671;48.922;2.346;2023-02-17T05:06:52;102352.84;;;12.80;77.49
62600;BME280;48671;48.922;2.346;2023-02-17T05:09:18;102341.53;;;12.78;77.82
62600;BME280;48671;48.922;2.346;2023-02-17T05:11:43;102360.59;;;12.83;78.01
62600;BME280;48671;48.922;2.346;2023-02-17T05:14:08;102364.13;;;12.82;78.45
62600;BME280;48671;48.922;2.346;2023-02-17T05:16:34;102360.59;;;12.83;77.80
62600;BME280;48671;48.922;2.346;2023-02-17T05:18:59;102359.75;;;12.81;79.50
62600;BME280;48671;48.922;2.346;2023-02-17T05:21:24;102370.19;;;12.82;78.29
62600;BME280;48671;48.922;2.346;2023-02-17T05:23:50;102374.47;;;12.85;78.07
62600;BME280;48671;48.922;2.346;2023-02-17T05:26:15;102354.59;;;12.78;77.82
62600;BME280;48671;48.922;2.346;2023-02-17T05:28:40;102370.19;;;12.82;77.38
62600;BME280;48671;48.922;2.346;2023-02-17T05:31:06;102376.09;;;12.91;77.71
62600;BME280;48671;48.922;2.346;2023-02-17T05:33:31;102377.06;;;12.86;77.74
62600;BME280;48671;48.922;2.346;2023-02-17T05:36:01;102354.53;;;12.81;77.77
62600;BME280;48671;48.922;2.346;2023-02-17T05:38:26;102373.53;;;12.89;77.57
62600;BME280;48671;48.922;2.346;2023-02-17T05:40:52;102347.56;;;12.81;77.42
62600;BME280;48671;48.922;2.346;2023-02-17T05:43:17;102375.34;;;12.85;78.45
62600;BME280;48671;48.922;2.346;2023-02-17T05:45:42;102366.72;;;12.82;77.62
62600;BME280;48671;48.922;2.346;2023-02-17T05:48:08;102368.44;;;12.83;77.85
62600;BME280;48671;48.922;2.346;2023-02-17T05:50:33;102377.00;;;12.89;78.01
62600;BME280;48671;48.922;2.346;2023-02-17T05:52:58;102370.19;;;12.82;77.93
62600;BME280;48671;48.922;2.346;2023-02-17T05:55:23;102362.38;;;12.81;78.57
62600;BME280;48671;48.922;2.346;2023-02-17T05:57:49;102370.09;;;12.87;78.07
62600;BME280;48671;48.922;2.346;2023-02-17T06:00:14;102373.63;;;12.84;77.78
62600;BME280;48671;48.922;2.346;2023-02-17T06:02:40;102380.59;;;12.85;77.76
62600;BME280;48671;48.922;2.346;2023-02-17T06:05:06;102388.28;;;12.92;77.71
62600;BME280;48671;48.922;2.346;2023-02-17T06:07:32;102386.59;;;12.89;77.46
62600;BME280;48671;48.922;2.346;2023-02-17T06:09:58;102388.38;;;12.87;77.59
62600;BME280;48671;48.922;2.346;2023-02-17T06:12:23;102396.97;;;12.92;77.70
62600;BME280;48671;48.922;2.346;2023-02-17T06:14:48;102375.38;;;12.84;77.57
62600;BME280;48671;48.922;2.346;2023-02-17T06:17:14;102379.78;;;12.82;77.65
62600;BME280;48671;48.922;2.346;2023-02-17T06:19:39;102394.44;;;12.87;77.76
62600;BME280;48671;48.922;2.346;2023-02-17T06:22:04;102400.41;;;12.94;77.69
62600;BME280;48671;48.922;2.346;2023-02-17T06:24:30;102408.34;;;12.89;77.87
62600;BME280;48671;48.922;2.346;2023-02-17T06:26:55;102399.72;;;12.86;77.77
62600;BME280;48671;48.922;2.346;2023-02-17T06:29:21;102411.03;;;12.86;77.84
62600;BME280;48671;48.922;2.346;2023-02-17T06:31:46;102414.44;;;12.90;77.97
62600;BME280;48671;48.922;2.346;2023-02-17T06:34:11;102418.81;;;12.88;78.76
62600;BME280;48671;48.922;2.346;2023-02-17T06:36:37;102420.56;;;12.87;78.03
62600;BME280;48671;48.922;2.346;2023-02-17T06:39:02;102418.81;;;12.89;78.17
62600;BME280;48671;48.922;2.346;2023-02-17T06:41:27;102418.81;;;12.88;78.00
62600;BME280;48671;48.922;2.346;2023-02-17T06:43:53;102430.91;;;12.94;77.82
62600;BME280;48671;48.922;2.346;2023-02-17T06:46:18;102427.47;;;12.92;77.76
62600;BME280;48671;48.922;2.346;2023-02-17T06:48:43;102438.72;;;12.95;77.84
62600;BME280;48671;48.922;2.346;2023-02-17T06:51:09;102439.66;;;12.91;77.90
62600;BME280;48671;48.922;2.346;2023-02-17T06:53:34;102453.50;;;12.95;78.09
62600;BME280;48671;48.922;2.346;2023-02-17T06:55:59;102451.84;;;12.92;77.97
62600;BME280;48671;48.922;2.346;2023-02-17T06:58:25;102447.53;;;12.89;78.15
62600;BME280;48671;48.922;2.346;2023-02-17T07:00:50;102453.59;;;12.92;78.74
62600;BME280;48671;48.922;2.346;2023-02-17T07:03:16;102449.25;;;12.91;78.09
62600;BME280;48671;48.922;2.346;2023-02-17T07:05:41;102459.69;;;12.92;78.45
62600;BME280;48671;48.922;2.346;2023-02-17T07:08:06;102454.47;;;12.92;77.96
62600;BME280;48671;48.922;2.346;2023-02-17T07:10:32;102450.09;;;12.91;78.10
62600;BME280;48671;48.922;2.346;2023-02-17T07:12:58;102446.69;;;12.89;78.32
62600;BME280;48671;48.922;2.346;2023-02-17T07:15:23;102455.38;;;12.88;78.32
62600;BME280;48671;48.922;2.346;2023-02-17T07:17:49;102449.28;;;12.89;77.80
62600;BME280;48671;48.922;2.346;2023-02-17T07:20:14;102448.31;;;12.93;77.87
62600;BME280;48671;48.922;2.346;2023-02-17T07:22:39;102473.47;;;12.99;78.23
62600;BME280;48671;48.922;2.346;2023-02-17T07:25:05;102461.38;;;12.93;78.77
62600;BME280;48671;48.922;2.346;2023-02-17T07:27:31;102469.13;;;12.98;77.83
62600;BME280;48671;48.922;2.346;2023-02-17T07:29:57;102476.84;;;13.04;77.97
62600;BME280;48671;48.922;2.346;2023-02-17T07:32:22;102463.91;;;12.98;77.45
62600;BME280;48671;48.922;2.346;2023-02-17T07:34:47;102464.69;;;13.01;78.78
62600;BME280;48671;48.922;2.346;2023-02-17T07:37:13;102461.22;;;13.01;78.41
62600;BME280;48671;48.922;2.346;2023-02-17T07:39:38;102472.44;;;13.06;78.43
62600;BME280;48671;48.922;2.346;2023-02-17T07:42:03;102466.44;;;13.02;77.97
62600;BME280;48671;48.922;2.346;2023-02-17T07:44:30;102475.91;;;13.06;78.19
62600;BME280;48671;48.922;2.346;2023-02-17T07:46:55;102488.88;;;13.11;77.96
62600;BME280;48671;48.922;2.346;2023-02-17T07:49:21;102472.44;;;13.06;78.09
62600;BME280;48671;48.922;2.346;2023-02-17T07:51:46;102475.06;;;13.04;78.46
62600;BME280;48671;48.922;2.346;2023-02-17T07:54:12;102470.75;;;13.03;77.87
62600;BME280;48671;48.922;2.346;2023-02-17T07:56:38;102467.28;;;13.03;78.10
62600;BME280;48671;48.922;2.346;2023-02-17T07:59:07;102485.41;;;13.10;78.03
62600;BME280;48671;48.922;2.346;2023-02-17T08:01:34;102468.16;;;13.03;79.04
62600;BME280;48671;48.922;2.346;2023-02-17T08:04:00;102467.19;;;13.07;78.48
62600;BME280;48671;48.922;2.346;2023-02-17T08:06:25;102474.22;;;13.04;78.23
62600;BME280;48671;48.922;2.346;2023-02-17T08:08:52;102494.84;;;13.18;78.15
62600;BME280;48671;48.922;2.346;2023-02-17T08:11:36;102494.94;;;13.15;78.76
62600;BME280;48671;48.922;2.346;2023-02-17T08:14:25;102500.94;;;13.18;78.26
62600;BME280;48671;48.922;2.346;2023-02-17T08:16:51;102490.50;;;13.18;77.69
62600;BME280;48671;48.922;2.346;2023-02-17T08:19:16;102494.78;;;13.21;77.86
62600;BME280;48671;48.922;2.346;2023-02-17T08:21:41;102496.47;;;13.25;78.42
62600;BME280;48671;48.922;2.346;2023-02-17T08:24:07;102505.13;;;13.28;78.06
62600;BME280;48671;48.922;2.346;2023-02-17T08:26:32;102489.59;;;13.18;77.94
62600;BME280;48671;48.922;2.346;2023-02-17T08:28:58;102502.47;;;13.30;77.97
62600;BME280;48671;48.922;2.346;2023-02-17T08:31:28;102503.47;;;13.24;78.03
62600;BME280;48671;48.922;2.346;2023-02-17T08:33:55;102515.47;;;13.33;78.29
62600;BME280;48671;48.922;2.346;2023-02-17T08:36:21;102498.19;;;13.26;77.58
62600;BME280;48671;48.922;2.346;2023-02-17T08:38:51;102498.16;;;13.27;77.65
62600;BME280;48671;48.922;2.346;2023-02-17T08:43:44;102505.78;;;13.37;77.72
62600;BME280;48671;48.922;2.346;2023-02-17T08:46:10;102513.69;;;13.35;77.86
62600;BME280;48671;48.922;2.346;2023-02-17T08:48:36;102511.06;;;13.35;77.69
62600;BME280;48671;48.922;2.346;2023-02-17T08:51:02;102517.09;;;13.37;77.52
62600;BME280;48671;48.922;2.346;2023-02-17T08:53:28;102501.53;;;13.32;77.67
62600;BME280;48671;48.922;2.346;2023-02-17T08:55:53;102490.22;;;13.32;77.52
62600;BME280;48671;48.922;2.346;2023-02-17T08:58:18;102508.47;;;13.33;77.74
62600;BME280;48671;48.922;2.346;2023-02-17T09:00:44;102498.00;;;13.35;77.77
62600;BME280;48671;48.922;2.346;2023-02-17T09:03:09;102494.53;;;13.34;77.73
62600;BME280;48671;48.922;2.346;2023-02-17T09:05:35;102492.72;;;13.38;77.27
62600;BME280;48671;48.922;2.346;2023-02-17T09:08:00;102504.94;;;13.38;77.80
62600;BME280;48671;48.922;2.346;2023-02-17T09:10:26;102508.41;;;13.38;77.21
62600;BME280;48671;48.922;2.346;2023-02-17T09:12:51;102520.25;;;13.53;77.46
62600;BME280;48671;48.922;2.346;2023-02-17T09:15:17;102489.13;;;13.42;77.28
62600;BME280;48671;48.922;2.346;2023-02-17T09:17:42;102507.47;;;13.41;77.28
62600;BME280;48671;48.922;2.346;2023-02-17T09:20:09;102532.41;;;13.55;76.90
62600;BME280;48671;48.922;2.346;2023-02-17T09:22:34;102513.31;;;13.50;77.11
62600;BME280;48671;48.922;2.346;2023-02-17T09:25:00;102513.31;;;13.50;77.00
62600;BME280;48671;48.922;2.346;2023-02-17T09:27:25;102526.28;;;13.56;76.94
62600;BME280;48671;48.922;2.346;2023-02-17T09:29:51;102530.50;;;13.62;77.11
62600;BME280;48671;48.922;2.346;2023-02-17T09:32:16;102511.59;;;13.51;76.59
62600;BME280;48671;48.922;2.346;2023-02-17T09:34:41;102506.31;;;13.52;76.85
62600;BME280;48671;48.922;2.346;2023-02-17T09:37:17;102517.44;;;13.62;76.57
62600;BME280;48671;48.922;2.346;2023-02-17T09:39:44;102500.13;;;13.56;76.94
62600;BME280;48671;48.922;2.346;2023-02-17T09:42:28;102517.25;;;13.70;76.43
62600;BME280;48671;48.922;2.346;2023-02-17T09:45:03;102524.09;;;13.77;76.23
62600;BME280;48671;48.922;2.346;2023-02-17T09:47:54;102516.25;;;13.77;76.35
62600;BME280;48671;48.922;2.346;2023-02-17T09:50:31;102527.31;;;13.88;76.13
62600;BME280;48671;48.922;2.346;2023-02-17T09:55:30;102503.81;;;13.85;75.72
62600;BME280;48671;48.922;2.346;2023-02-17T09:58:09;102512.38;;;13.93;75.74
62600;BME280;48671;48.922;2.346;2023-02-17T10:00:44;102512.19;;;13.99;75.75
62600;BME280;48671;48.922;2.346;2023-02-17T10:03:33;102519.16;;;14.00;75.63
62600;BME280;48671;48.922;2.346;2023-02-17T10:06:11;102532.88;;;14.10;75.37
62600;BME280;48671;48.922;2.346;2023-02-17T10:08:44;102544.94;;;14.16;75.19
62600;BME280;48671;48.922;2.346;2023-02-17T10:11:43;102547.63;;;14.14;75.27
62600;BME280;48671;48.922;2.346;2023-02-17T10:14:16;102549.31;;;14.17;74.87
62600;BME280;48671;48.922;2.346;2023-02-17T10:16:48;102531.31;;;14.03;74.81
62600;BME280;48671;48.922;2.346;2023-02-17T10:19:24;102547.66;;;14.13;74.69
62600;BME280;48671;48.922;2.346;2023-02-17T10:22:17;102554.53;;;14.17;74.54
62600;BME280;48671;48.922;2.346;2023-02-17T10:24:43;102544.28;;;14.08;74.50
62600;BME280;48671;48.922;2.346;2023-02-17T10:27:29;102553.69;;;14.16;74.60
62600;BME280;48671;48.922;2.346;2023-02-17T10:32:36;102543.34;;;14.10;74.52
62600;BME280;48671;48.922;2.346;2023-02-17T10:35:16;102532.06;;;14.08;74.27
62600;BME280;48671;48.922;2.346;2023-02-17T10:37:44;102557.03;;;14.21;74.35
62600;BME280;48671;48.922;2.346;2023-02-17T10:40:20;102536.31;;;14.12;73.86
62600;BME280;48671;48.922;2.346;2023-02-17T10:42:49;102526.81;;;14.08;74.21
62600;BME280;48671;48.922;2.346;2023-02-17T10:45:30;102538.78;;;14.18;73.84
62600;BME280;48671;48.922;2.346;2023-02-17T10:48:02;102540.69;;;14.12;74.12
62600;BME280;48671;48.922;2.346;2023-02-17T10:50:30;102539.06;;;14.08;73.81
62600;BME280;48671;48.922;2.346;2023-02-17T10:52:56;102552.81;;;14.16;73.74
62600;BME280;48671;48.922;2.346;2023-02-17T10:55:31;102518.97;;;14.08;73.57
62600;BME280;48671;48.922;2.346;2023-02-17T10:58:21;102545.56;;;14.27;73.67
62600;BME280;48671;48.922;2.346;2023-02-17T11:00:52;102541.19;;;14.27;73.66
62600;BME280;48671;48.922;2.346;2023-02-17T11:03:25;102541.94;;;14.33;73.50
62600;BME280;48671;48.922;2.346;2023-02-17T11:05:59;102535.09;;;14.27;73.63
62600;BME280;48671;48.922;2.346;2023-02-17T11:08:32;102550.56;;;14.36;73.26
62600;BME280;48671;48.922;2.346;2023-02-17T11:11:13;102565.44;;;14.36;73.45
62600;BME280;48671;48.922;2.346;2023-02-17T11:13:45;102568.75;;;14.42;73.21
62600;BME280;48671;48.922;2.346;2023-02-17T11:16:24;102555.91;;;14.32;72.89
62600;BME280;48671;48.922;2.346;2023-02-17T11:18:52;102556.59;;;14.38;72.91
62600;BME280;48671;48.922;2.346;2023-02-17T11:21:17;102562.63;;;14.42;72.51
62600;BME280;48671;48.922;2.346;2023-02-17T11:23:55;102554.78;;;14.42;72.69
62600;BME280;48671;48.922;2.346;2023-02-17T11:26:25;102552.22;;;14.40;72.23
62600;BME280;48671;48.922;2.346;2023-02-17T11:28:53;102549.53;;;14.42;72.54
62600;BME280;48671;48.922;2.346;2023-02-17T11:31:27;102548.59;;;14.44;72.46
62600;BME280;48671;48.922;2.346;2023-02-17T11:33:54;102560.56;;;14.56;72.58
62600;BME280;48671;48.922;2.346;2023-02-17T11:36:27;102545.75;;;14.55;72.43
62600;BME280;48671;48.922;2.346;2023-02-17T11:38:53;102543.84;;;14.62;72.21
62600;BME280;48671;48.922;2.346;2023-02-17T11:41:20;102544.78;;;14.59;72.03
62600;BME280;48671;48.922;2.346;2023-02-17T11:43:56;102567.91;;;14.76;71.50
62600;BME280;48671;48.922;2.346;2023-02-17T11:47:04;102575.69;;;14.79;71.84
62600;BME280;48671;48.922;2.346;2023-02-17T11:50:05;102560.72;;;14.83;71.72
62600;BME280;48671;48.922;2.346;2023-02-17T11:52:41;102544.16;;;14.82;71.37
62600;BME280;48671;48.922;2.346;2023-02-17T11:57:52;102551.63;;;14.96;71.22
62600;BME280;48671;48.922;2.346;2023-02-17T12:00:30;102522.19;;;14.86;71.22
62600;BME280;48671;48.922;2.346;2023-02-17T12:03:32;102539.22;;;15.03;71.06
62600;BME280;48671;48.922;2.346;2023-02-17T12:06:07;102535.59;;;15.07;71.03
62600;BME280;48671;48.922;2.346;2023-02-17T12:08:50;102513.75;;;15.08;71.18
62600;BME280;48671;48.922;2.346;2023-02-17T12:20:44;102520.81;;;15.63;69.88
62600;BME280;48671;48.922;2.346;2023-02-17T12:29:34;102517.78;;;15.77;68.46
62600;BME280;48671;48.922;2.346;2023-02-17T12:35:02;102501.41;;;15.96;68.67
62600;BME280;48671;48.922;2.346;2023-02-17T12:37:39;102502.22;;;15.99;67.81
62600;BME280;48671;48.922;2.346;2023-02-17T12:40:35;102504.72;;;16.02;67.79
62600;BME280;48671;48.922;2.346;2023-02-17T12:43:12;102495.19;;;16.00;67.42
62600;BME280;48671;48.922;2.346;2023-02-17T12:45:45;102497.53;;;16.07;67.33
62600;BME280;48671;48.922;2.346;2023-02-17T12:51:36;102506.13;;;16.12;67.60
62600;BME280;48671;48.922;2.346;2023-02-17T13:04:03;102485.34;;;16.06;66.59
62600;BME280;48671;48.922;2.346;2023-02-17T13:06:35;102480.59;;;15.91;66.71
62600;BME280;48671;48.922;2.346;2023-02-17T13:09:14;102495.19;;;16.00;67.12
62600;BME280;48671;48.922;2.346;2023-02-17T13:11:41;102497.00;;;15.98;66.72
62600;BME280;48671;48.922;2.346;2023-02-17T13:14:25;102510.78;;;16.04;67.10
62600;BME280;48671;48.922;2.346;2023-02-17T13:16:51;102486.00;;;15.86;66.15
62600;BME280;48671;48.922;2.346;2023-02-17T13:19:28;102497.91;;;15.97;66.73
62600;BME280;48671;48.922;2.346;2023-02-17T13:21:56;102495.31;;;15.95;66.71
62600;BME280;48671;48.922;2.346;2023-02-17T13:24:35;102492.78;;;15.92;66.94
62600;BME280;48671;48.922;2.346;2023-02-17T13:27:30;102509.19;;;15.99;66.98
62600;BME280;48671;48.922;2.346;2023-02-17T13:32:35;102492.69;;;15.95;66.60
62600;BME280;48671;48.922;2.346;2023-02-17T13:35:10;102495.19;;;16.00;67.10
62600;BME280;48671;48.922;2.346;2023-02-17T13:37:44;102478.63;;;15.98;67.10
62600;BME280;48671;48.922;2.346;2023-02-17T13:42:44;102483.88;;;15.98;66.99
62600;BME280;48671;48.922;2.346;2023-02-17T13:45:43;102496.78;;;16.04;66.30
62600;BME280;48671;48.922;2.346;2023-02-17T13:48:13;102498.38;;;16.09;66.59
62600;BME280;48671;48.922;2.346;2023-02-17T13:50:58;102497.75;;;16.01;66.73
62600;BME280;48671;48.922;2.346;2023-02-17T13:53:31;102511.50;;;16.09;66.85
62600;BME280;48671;48.922;2.346;2023-02-17T13:56:07;102503.75;;;16.05;67.06
62600;BME280;48671;48.922;2.346;2023-02-17T13:58:38;102484.63;;;16.01;66.68
62600;BME280;48671;48.922;2.346;2023-02-17T14:01:07;102496.63;;;16.08;66.89
62600;BME280;48671;48.922;2.346;2023-02-17T14:03:49;102475.88;;;16.01;66.71
62600;BME280;48671;48.922;2.346;2023-02-17T14:06:39;102492.84;;;16.17;66.93
62600;BME280;48671;48.922;2.346;2023-02-17T14:09:32;102490.19;;;16.19;66.72
62600;BME280;48671;48.922;2.346;2023-02-17T14:12:01;102466.84;;;16.09;66.21